createdAt,value
2022-09-19T00:01:37.750Z,0.20
2022-09-19T00:07:01.071Z,0.20
2022-09-19T00:12:23.343Z,0.17
2022-09-19T00:17:45.085Z,0.30
2022-09-19T00:23:25.386Z,0.30
2022-09-19T00:28:47.765Z,0.10
2022-09-19T00:34:10.447Z,0.10
2022-09-19T00:39:32.151Z,0.10
2022-09-19T00:45:01.080Z,0.13
2022-09-19T00:50:28.317Z,0.20
2022-09-19T00:55:56.358Z,0.10
2022-09-19T01:01:18.222Z,0.10
2022-09-19T01:06:56.360Z,0.20
2022-09-19T01:12:47.837Z,0.20
2022-09-19T01:18:10.677Z,0.15
2022-09-19T01:23:36.850Z,0.10
2022-09-19T01:29:17.670Z,0.10
2022-09-19T01:34:51.752Z,0.20
2022-09-19T01:40:14.724Z,0.13
2022-09-19T01:45:41.391Z,0.20
2022-09-19T01:51:30.100Z,0.20
2022-09-19T01:56:54.787Z,0.10
2022-09-19T02:02:30.175Z,0.10
2022-09-19T02:08:04.287Z,0.10
2022-09-19T02:13:28.811Z,0.17
2022-09-19T02:18:55.078Z,0.25
2022-09-19T02:24:23.233Z,0.15
2022-09-19T02:29:49.507Z,0.47
2022-09-19T02:35:14.387Z,0.30
2022-09-19T02:40:45.260Z,0.10
2022-09-19T02:46:15.882Z,0.20
2022-09-19T02:51:47.919Z,0.15
2022-09-19T02:57:15.671Z,0.25
2022-09-19T03:02:41.276Z,0.20
2022-09-19T03:13:27.602Z,0.10
2022-09-19T03:18:56.825Z,0.17
2022-09-19T03:24:18.480Z,0.10
2022-09-19T03:29:40.126Z,0.10
2022-09-19T03:35:03.979Z,0.20
2022-09-19T03:40:26.570Z,0.10
2022-09-19T03:51:14.454Z,0.20
2022-09-19T03:56:36.102Z,0.20
2022-09-19T04:01:59.491Z,0.00
2022-09-19T04:07:21.228Z,0.20
2022-09-19T04:12:43.087Z,0.20
2022-09-19T04:18:05.274Z,0.20
2022-09-19T04:23:27.367Z,0.10
2022-09-19T04:28:48.982Z,0.10
2022-09-19T04:34:17.876Z,0.10
2022-09-19T04:39:39.635Z,0.08
2022-09-19T04:45:01.431Z,0.13
2022-09-19T04:50:23.068Z,0.10
2022-09-19T04:55:44.907Z,0.13
2022-09-19T05:01:06.731Z,0.10
2022-09-19T05:06:29.778Z,0.17
2022-09-19T05:11:51.504Z,0.17
2022-09-19T05:17:13.400Z,0.10
2022-09-19T05:22:35.085Z,0.13
2022-09-19T05:28:07.403Z,0.20
2022-09-19T05:33:29.180Z,0.10
2022-09-19T05:38:50.891Z,0.20
2022-09-19T05:44:14.442Z,0.20
2022-09-19T05:49:36.226Z,0.50
2022-09-19T05:54:57.898Z,0.20
2022-09-19T06:00:20.997Z,0.30
2022-09-19T06:05:44.966Z,0.30
2022-09-19T06:11:07.725Z,0.20
2022-09-19T06:16:29.467Z,0.20
2022-09-19T06:21:52.411Z,0.20
2022-09-19T06:27:14.038Z,0.20
2022-09-19T06:32:39.171Z,0.30
2022-09-19T06:38:04.343Z,0.30
2022-09-19T06:43:27.416Z,0.30
2022-09-19T06:48:52.114Z,0.30
2022-09-19T06:54:13.828Z,0.30
2022-09-19T06:59:35.463Z,0.30
2022-09-19T07:04:57.119Z,0.30
2022-09-19T07:10:20.956Z,0.30
2022-09-19T07:15:43.051Z,0.10
2022-09-19T07:21:04.907Z,0.40
2022-09-19T07:26:26.676Z,0.40
2022-09-19T07:31:48.401Z,0.40
2022-09-19T07:37:10.141Z,0.22
2022-09-19T07:42:31.837Z,0.32
2022-09-19T07:47:54.071Z,0.47
2022-09-19T07:53:20.944Z,0.60
2022-09-19T07:58:42.620Z,0.40
2022-09-19T08:04:04.293Z,0.47
2022-09-19T08:09:25.921Z,0.65
2022-09-19T08:14:47.897Z,0.47
2022-09-19T08:20:09.790Z,0.57
2022-09-19T08:25:33.956Z,0.30
2022-09-19T08:31:01.080Z,0.40
2022-09-19T08:36:23.511Z,0.50
2022-09-19T08:42:09.701Z,0.40
2022-09-19T08:47:35.245Z,0.38
2022-09-19T08:58:25.528Z,0.30
2022-09-19T09:04:08.627Z,0.40
2022-09-19T09:09:35.609Z,0.63
2022-09-19T09:15:43.370Z,0.88
2022-09-19T09:21:07.569Z,1.02
2022-09-19T09:26:38.008Z,1.20
2022-09-19T09:32:24.783Z,0.80
2022-09-19T09:38:03.557Z,1.00
2022-09-19T09:43:31.299Z,1.30
2022-09-19T09:48:53.999Z,0.90
2022-09-19T09:54:59.192Z,1.13
2022-09-19T10:00:39.723Z,1.10
2022-09-19T10:06:26.600Z,0.90
2022-09-19T10:17:58.736Z,1.10
2022-09-19T10:23:26.837Z,0.77
2022-09-19T10:28:55.106Z,0.85
2022-09-19T10:34:37.497Z,0.90
2022-09-19T10:40:05.812Z,0.75
2022-09-19T10:45:37.804Z,0.75
2022-09-19T10:51:00.756Z,1.08
2022-09-19T10:56:24.431Z,0.90
2022-09-19T11:02:25.416Z,0.85
2022-09-19T11:07:51.876Z,0.73
2022-09-19T11:13:20.873Z,0.82
2022-09-19T11:19:28.264Z,0.75
2022-09-19T11:25:05.697Z,0.85
2022-09-19T11:30:28.443Z,0.70
2022-09-19T11:36:05.330Z,0.60
2022-09-19T11:41:39.142Z,0.60
2022-09-19T11:47:24.294Z,0.70
2022-09-19T11:53:13.746Z,0.60
2022-09-19T11:58:45.705Z,0.47
2022-09-19T12:04:25.709Z,0.63
2022-09-19T12:09:53.524Z,0.70
2022-09-19T12:15:18.628Z,0.60
2022-09-19T12:20:44.219Z,0.73
2022-09-19T12:26:10.977Z,0.40
2022-09-19T12:31:38.268Z,0.57
2022-09-19T12:37:10.809Z,0.70
2022-09-19T12:42:56.096Z,0.70
2022-09-19T12:48:25.484Z,0.68
2022-09-19T12:53:57.131Z,0.65
2022-09-19T12:59:24.832Z,0.43
2022-09-19T13:04:58.809Z,0.63
2022-09-19T13:10:40.899Z,0.60
2022-09-19T13:16:08.696Z,0.52
2022-09-19T13:22:06.237Z,0.98
2022-09-19T13:27:27.939Z,0.80
2022-09-19T13:32:56.255Z,0.60
2022-09-19T13:38:26.972Z,0.70
2022-09-19T13:44:01.455Z,0.80
2022-09-19T13:49:32.708Z,0.70
2022-09-19T13:55:20.993Z,0.68
2022-09-19T14:00:46.060Z,0.45
2022-09-19T14:09:59.451Z,0.90
2022-09-19T14:12:40.129Z,0.65
2022-09-19T14:18:14.194Z,0.50
2022-09-19T14:23:43.081Z,0.50
2022-09-19T14:29:26.041Z,0.50
2022-09-19T14:34:49.925Z,0.50
2022-09-19T14:40:39.108Z,0.60
2022-09-19T14:46:21.871Z,0.70
2022-09-19T14:52:01.507Z,0.60
2022-09-19T14:57:23.976Z,0.40
2022-09-19T15:02:46.030Z,0.60
2022-09-19T15:08:30.261Z,0.65
2022-09-19T15:13:51.879Z,0.70
2022-09-19T15:19:13.559Z,0.63
2022-09-19T15:24:35.389Z,0.50
2022-09-19T15:29:58.895Z,0.40
2022-09-19T15:35:22.257Z,0.57
2022-09-19T15:40:44.530Z,0.38
2022-09-19T15:46:32.081Z,0.80
2022-09-19T15:52:01.408Z,0.70
2022-09-19T15:57:33.481Z,1.65
2022-09-19T16:03:00.824Z,3.38
2022-09-19T16:08:48.644Z,5.88
2022-09-19T16:14:20.010Z,6.13
2022-09-19T16:19:44.665Z,4.95
2022-09-19T16:25:06.686Z,4.43
2022-09-19T16:30:28.450Z,3.75
2022-09-19T16:35:57.447Z,4.07
2022-09-19T16:41:23.918Z,2.92
2022-09-19T16:46:59.305Z,3.17
2022-09-19T16:52:25.746Z,2.80
2022-09-19T16:57:47.399Z,2.92
2022-09-19T17:03:11.529Z,2.72
2022-09-19T17:08:33.336Z,2.20
2022-09-19T17:13:54.981Z,1.85
2022-09-19T17:19:16.641Z,1.63
2022-09-19T17:24:40.346Z,2.22
2022-09-19T17:30:02.096Z,1.27
2022-09-19T17:35:23.997Z,1.20
2022-09-19T17:40:48.812Z,1.42
2022-09-19T17:46:13.438Z,1.55
2022-09-19T17:51:35.402Z,1.63
2022-09-19T17:56:57.941Z,1.55
2022-09-19T18:02:38.200Z,1.08
2022-09-19T18:08:04.210Z,1.25
2022-09-19T18:13:25.938Z,1.23
2022-09-19T18:18:47.864Z,0.90
2022-09-19T18:24:10.884Z,1.40
2022-09-19T18:29:33.564Z,0.70
2022-09-19T18:34:55.815Z,0.98
2022-09-19T18:40:17.997Z,0.65
2022-09-19T18:45:40.468Z,0.93
2022-09-19T18:51:11.711Z,0.60
2022-09-19T18:56:33.957Z,0.68
2022-09-19T19:01:57.275Z,0.85
2022-09-19T19:07:19.116Z,0.75
2022-09-19T19:12:46.771Z,0.93
2022-09-19T19:18:10.962Z,0.60
2022-09-19T19:23:33.450Z,0.70
2022-09-19T19:28:55.614Z,0.73
2022-09-19T19:34:17.663Z,0.80
2022-09-19T19:39:39.280Z,0.70
2022-09-19T19:45:03.525Z,1.10
2022-09-19T19:50:25.390Z,0.57
2022-09-19T19:55:47.116Z,0.73
2022-09-19T20:01:17.937Z,1.42
2022-09-19T20:06:44.562Z,0.95
2022-09-19T20:12:06.488Z,1.00
2022-09-19T20:17:28.778Z,0.93
2022-09-19T20:22:51.087Z,0.68
2022-09-19T20:28:13.192Z,1.10
2022-09-19T20:33:34.851Z,0.70
2022-09-19T20:38:57.751Z,0.70
2022-09-19T20:44:21.679Z,0.70
2022-09-19T20:49:43.400Z,0.70
2022-09-19T20:55:05.978Z,0.90
2022-09-19T21:00:27.600Z,0.70
2022-09-19T21:05:53.320Z,0.52
2022-09-19T21:11:16.107Z,0.60
2022-09-19T21:16:39.962Z,0.50
2022-09-19T21:22:02.644Z,0.70
2022-09-19T21:27:24.477Z,0.35
2022-09-19T21:32:46.118Z,0.50
2022-09-19T21:38:07.768Z,0.50
2022-09-19T21:43:33.361Z,0.50
2022-09-19T21:48:55.479Z,0.50
2022-09-19T21:54:17.102Z,0.45
2022-09-19T21:59:38.796Z,0.40
2022-09-19T22:05:00.410Z,0.32
2022-09-19T22:10:22.226Z,0.30
2022-09-19T22:15:43.851Z,0.22
2022-09-19T22:21:06.333Z,0.30
2022-09-19T22:26:29.914Z,0.30
2022-09-19T22:31:51.639Z,0.50
2022-09-19T22:37:13.487Z,0.30
2022-09-19T22:42:35.279Z,0.50
2022-09-19T22:47:56.954Z,0.30
2022-09-19T22:53:18.789Z,0.50
2022-09-19T22:58:40.836Z,0.20
2022-09-19T23:04:04.758Z,0.28
2022-09-19T23:09:26.556Z,0.25
2022-09-19T23:14:48.204Z,0.20
2022-09-19T23:20:10.250Z,0.30
2022-09-19T23:25:33.013Z,0.35
2022-09-19T23:30:54.875Z,0.22
2022-09-19T23:36:19.369Z,0.28
2022-09-19T23:41:41.157Z,0.20
2022-09-19T23:47:02.847Z,0.35
2022-09-19T23:52:24.891Z,0.20
2022-09-19T23:57:46.534Z,0.20
